createdAt,value
2022-08-16T00:02:13.112Z,11.00
2022-08-16T00:07:37.956Z,11.00
2022-08-16T00:13:01.716Z,10.40
2022-08-16T00:18:29.472Z,11.93
2022-08-16T00:23:54.552Z,11.85
2022-08-16T00:29:18.561Z,11.55
2022-08-16T00:34:52.224Z,12.02
2022-08-16T00:40:34.794Z,13.13
2022-08-16T00:46:34.365Z,12.05
2022-08-16T00:51:53.641Z,11.57
2022-08-16T00:57:20.179Z,12.98
2022-08-16T01:02:49.001Z,12.68
2022-08-16T01:08:36.442Z,13.15
2022-08-16T01:14:03.297Z,13.60
2022-08-16T01:19:31.097Z,12.20
2022-08-16T01:24:58.515Z,14.27
2022-08-16T01:30:26.188Z,16.35
2022-08-16T01:35:53.865Z,16.85
2022-08-16T01:41:23.819Z,19.80
2022-08-16T01:46:49.714Z,17.02
2022-08-16T01:52:28.264Z,17.13
2022-08-16T01:58:00.686Z,16.27
2022-08-16T02:03:26.697Z,15.75
2022-08-16T02:08:51.194Z,15.23
2022-08-16T02:14:18.402Z,14.57
2022-08-16T02:19:59.407Z,15.00
2022-08-16T02:25:24.703Z,15.40
2022-08-16T02:31:11.413Z,15.77
2022-08-16T02:36:47.814Z,13.43
2022-08-16T02:42:15.397Z,14.38
2022-08-16T02:48:00.619Z,15.15
2022-08-16T02:53:27.399Z,14.70
2022-08-16T02:58:52.747Z,16.25
2022-08-16T03:04:40.734Z,14.90
2022-08-16T03:10:01.237Z,14.15
2022-08-16T03:15:27.726Z,15.30
2022-08-16T03:20:55.644Z,17.80
2022-08-16T03:26:19.627Z,22.10
2022-08-16T03:31:44.626Z,19.67
2022-08-16T03:37:18.078Z,22.30
2022-08-16T03:43:00.329Z,24.95
2022-08-16T03:48:36.606Z,20.90
2022-08-16T03:54:12.316Z,20.85
2022-08-16T03:59:37.631Z,21.98
2022-08-16T04:05:10.641Z,20.48
2022-08-16T04:10:38.125Z,20.35
2022-08-16T04:16:03.130Z,20.27
2022-08-16T04:21:30.751Z,20.35
2022-08-16T04:26:59.512Z,20.15
2022-08-16T04:32:22.746Z,20.58
2022-08-16T04:37:53.738Z,20.73
2022-08-16T04:43:25.532Z,22.50
2022-08-16T04:48:50.686Z,20.35
2022-08-16T04:54:15.055Z,21.27
2022-08-16T04:59:44.571Z,18.70
2022-08-16T05:05:08.899Z,21.05
2022-08-16T05:10:41.157Z,19.42
2022-08-16T05:16:09.923Z,20.40
2022-08-16T05:21:38.528Z,17.25
2022-08-16T05:27:11.499Z,19.75
2022-08-16T05:32:47.349Z,18.63
2022-08-16T05:38:32.517Z,19.08
2022-08-16T05:44:00.241Z,20.27
2022-08-16T05:49:39.632Z,21.48
2022-08-16T05:55:05.266Z,21.05
2022-08-16T06:00:31.367Z,23.40
2022-08-16T06:05:55.924Z,20.52
2022-08-16T06:11:25.671Z,21.20
2022-08-16T06:16:54.297Z,22.02
2022-08-16T06:22:39.064Z,20.38
2022-08-16T06:28:08.386Z,22.95
2022-08-16T06:33:41.557Z,21.92
2022-08-16T06:39:08.281Z,20.70
2022-08-16T06:44:53.219Z,19.73
2022-08-16T06:50:37.460Z,20.65
2022-08-16T06:56:14.483Z,22.63
2022-08-16T07:01:58.787Z,20.30
2022-08-16T07:07:25.102Z,22.58
2022-08-16T07:13:04.338Z,19.60
2022-08-16T07:18:36.966Z,18.25
2022-08-16T07:24:06.064Z,17.90
2022-08-16T07:29:32.749Z,17.52
2022-08-16T07:34:57.239Z,16.55
2022-08-16T07:40:49.054Z,14.77
2022-08-16T07:46:39.232Z,16.20
2022-08-16T07:51:56.009Z,16.90
2022-08-16T07:57:21.883Z,15.00
2022-08-16T08:02:52.190Z,13.75
2022-08-16T08:08:51.731Z,12.25
2022-08-16T08:14:06.931Z,14.48
2022-08-16T08:19:40.541Z,14.13
2022-08-16T08:25:07.798Z,14.88
2022-08-16T08:30:52.112Z,12.68
2022-08-16T08:36:33.335Z,13.65
2022-08-16T08:42:03.519Z,12.18
2022-08-16T08:47:27.788Z,11.35
2022-08-16T08:52:53.860Z,10.73
2022-08-16T08:58:18.179Z,9.48
2022-08-16T09:04:03.645Z,10.02
2022-08-16T09:09:33.965Z,9.55
2022-08-16T09:15:01.893Z,7.95
2022-08-16T09:20:29.915Z,9.48
2022-08-16T09:25:54.720Z,8.77
2022-08-16T09:31:18.866Z,7.93
2022-08-16T09:36:46.058Z,8.38
2022-08-16T09:42:11.279Z,8.38
2022-08-16T09:47:56.458Z,7.93
2022-08-16T09:53:23.319Z,8.02
2022-08-16T09:59:05.826Z,6.78
2022-08-16T10:04:44.322Z,7.80
2022-08-16T10:10:18.937Z,8.75
2022-08-16T10:15:59.563Z,8.98
2022-08-16T10:21:23.564Z,7.05
2022-08-16T10:27:18.693Z,8.75
2022-08-16T10:32:32.065Z,8.85
2022-08-16T10:37:55.895Z,7.72
2022-08-16T10:43:19.208Z,8.13
2022-08-16T10:48:47.107Z,8.52
2022-08-16T10:54:29.692Z,6.55
2022-08-16T10:59:58.315Z,9.60
2022-08-16T11:05:24.070Z,8.98
2022-08-16T11:11:14.276Z,10.23
2022-08-16T11:22:39.650Z,7.53
2022-08-16T11:28:04.023Z,7.68
2022-08-16T11:33:53.240Z,7.38
2022-08-16T11:39:11.672Z,9.00
2022-08-16T11:44:45.368Z,11.45
2022-08-16T11:50:17.029Z,7.32
2022-08-16T11:55:44.061Z,9.93
2022-08-16T12:01:10.739Z,10.68
2022-08-16T12:06:34.027Z,6.53
2022-08-16T12:12:03.161Z,6.88
2022-08-16T12:17:26.503Z,8.77
2022-08-16T12:22:51.710Z,7.25
2022-08-16T12:28:17.463Z,7.03
2022-08-16T12:34:00.309Z,7.00
2022-08-16T12:39:23.890Z,6.63
2022-08-16T12:44:53.742Z,8.70
2022-08-16T12:50:16.941Z,9.65
2022-08-16T12:55:43.764Z,10.13
2022-08-16T13:01:12.179Z,10.27
2022-08-16T13:06:36.339Z,7.43
2022-08-16T13:12:03.773Z,10.73
2022-08-16T13:17:31.791Z,9.27
2022-08-16T13:23:03.512Z,10.38
2022-08-16T13:28:28.146Z,10.10
2022-08-16T13:33:54.447Z,11.25
2022-08-16T13:39:22.629Z,11.90
2022-08-16T13:44:55.875Z,12.13
2022-08-16T13:50:31.365Z,12.35
2022-08-16T13:56:05.248Z,13.88
2022-08-16T14:01:28.517Z,13.68
2022-08-16T14:06:56.418Z,12.32
2022-08-16T14:12:24.988Z,14.20
2022-08-16T14:18:15.469Z,13.85
2022-08-16T14:23:34.734Z,13.38
2022-08-16T14:29:03.910Z,12.48
2022-08-16T14:34:29.100Z,11.77
2022-08-16T14:39:54.621Z,12.63
2022-08-16T14:45:21.620Z,13.07
2022-08-16T14:50:45.892Z,14.60
2022-08-16T14:56:17.292Z,14.23
2022-08-16T15:01:58.670Z,13.75
2022-08-16T15:07:23.753Z,13.07
2022-08-16T15:12:48.178Z,11.27
2022-08-16T15:18:13.863Z,9.82
2022-08-16T15:23:46.682Z,13.48
2022-08-16T15:29:11.310Z,14.40
2022-08-16T15:34:36.301Z,13.93
2022-08-16T15:39:59.558Z,11.52
2022-08-16T15:45:38.645Z,12.05
2022-08-16T15:51:05.639Z,11.48
2022-08-16T15:56:31.341Z,13.02
2022-08-16T16:02:29.215Z,12.80
2022-08-16T16:07:56.810Z,11.85
2022-08-16T16:13:34.145Z,12.05
2022-08-16T16:19:00.663Z,11.32
2022-08-16T16:24:31.465Z,11.15
2022-08-16T16:29:58.137Z,13.13
2022-08-16T16:35:27.680Z,12.52
2022-08-16T16:40:55.882Z,12.23
2022-08-16T16:46:41.383Z,12.55
2022-08-16T16:52:07.107Z,14.15
2022-08-16T16:57:48.146Z,11.50
2022-08-16T17:03:17.023Z,11.30
2022-08-16T17:08:43.039Z,10.70
2022-08-16T17:14:13.920Z,10.63
2022-08-16T17:19:50.907Z,11.88
2022-08-16T17:25:15.548Z,12.30
2022-08-16T17:30:45.134Z,13.00
2022-08-16T17:36:09.590Z,14.30
2022-08-16T17:41:54.169Z,12.50
2022-08-16T17:47:17.396Z,14.43
2022-08-16T17:52:40.679Z,14.43
2022-08-16T17:58:23.266Z,14.35
2022-08-16T18:04:07.205Z,13.98
2022-08-16T18:09:30.684Z,15.63
2022-08-16T18:14:59.890Z,15.27
2022-08-16T18:20:41.608Z,15.95
2022-08-16T18:26:07.034Z,16.70
2022-08-16T18:31:31.874Z,17.30
2022-08-16T18:36:55.048Z,16.52
2022-08-16T18:42:18.553Z,16.50
2022-08-16T18:47:43.452Z,18.25
2022-08-16T18:53:09.339Z,16.67
2022-08-16T18:58:33.869Z,19.10
2022-08-16T19:03:58.424Z,20.17
2022-08-16T19:09:21.779Z,17.85
2022-08-16T19:14:45.521Z,17.10
2022-08-16T19:20:11.598Z,18.52
2022-08-16T19:25:46.409Z,19.65
2022-08-16T19:31:14.794Z,18.00
2022-08-16T19:36:40.834Z,16.27
2022-08-16T19:42:12.158Z,20.25
2022-08-16T19:47:35.602Z,17.45
2022-08-16T19:53:13.071Z,16.95
2022-08-16T19:59:01.884Z,15.48
2022-08-16T20:04:25.848Z,15.75
2022-08-16T20:09:50.871Z,14.32
2022-08-16T20:15:17.339Z,14.20
2022-08-16T20:21:08.673Z,13.55
2022-08-16T20:26:34.681Z,13.63
2022-08-16T20:31:57.923Z,14.05
2022-08-16T20:37:22.213Z,12.88
2022-08-16T20:42:50.701Z,13.77
2022-08-16T20:48:16.441Z,13.63
2022-08-16T20:54:15.065Z,13.27
2022-08-16T20:59:57.841Z,15.27
2022-08-16T21:12:37.611Z,14.77
2022-08-16T21:18:02.795Z,14.25
2022-08-16T21:23:25.953Z,15.38
2022-08-16T21:28:49.137Z,15.57
2022-08-16T21:34:13.894Z,15.27
2022-08-16T21:39:37.160Z,15.98
2022-08-16T21:45:00.385Z,14.50
2022-08-16T21:50:24.940Z,15.88
2022-08-16T21:55:50.214Z,15.63
2022-08-16T22:01:13.417Z,18.75
2022-08-16T22:06:38.234Z,17.58
2022-08-16T22:12:01.387Z,16.00
2022-08-16T22:17:24.455Z,17.70
2022-08-16T22:22:50.077Z,17.88
2022-08-16T22:28:14.523Z,17.08
2022-08-16T22:33:37.860Z,18.00
2022-08-16T22:39:07.336Z,18.88
2022-08-16T22:44:30.471Z,18.60
2022-08-16T22:49:53.561Z,18.13
2022-08-16T22:55:19.200Z,18.92
2022-08-16T23:00:43.821Z,17.05
2022-08-16T23:06:07.573Z,18.42
2022-08-16T23:11:32.682Z,17.55
2022-08-16T23:16:56.515Z,19.45
2022-08-16T23:22:24.754Z,18.23
2022-08-16T23:27:49.805Z,18.42
2022-08-16T23:33:14.705Z,20.75
2022-08-16T23:38:39.515Z,20.83
2022-08-16T23:44:42.280Z,18.48
2022-08-16T23:50:01.003Z,19.77
2022-08-16T23:55:27.663Z,21.27
